aviador You're here:

GMFF Decoded Metar

FEZ in MOROCCO
Report Time2018-06-25 11:30:00
UTC Time2018-06-25 11:45:31
Flight Rules lifr LIFR
Wind290° at 04 kt
W.Decomp.*RWY 27: 3.7 kt HW 1.4 kt RCW
W.Rank290° ranks 7
Current wind is below 290° avg. (7.3)
Visibility2500 m
Phenomena:Mist
Clouds:Overcast 003 Hf
Ceiling300 ft
Temp20°C (ISA +9)
Dew Point20°C (100% RH)
QNH1019 hPa
Density Alt3,041 ft
Elevation1,900 ft
Report Wrong Elevation
Raw Report
GMFF 251130Z 29004KT 2500 BR OVC003 20/20 Q1019 NOSIG=

Extra information for GMFF:More info

Metar Taf Metar & Taf Last 4 Metars F.Rules Stats Wind Profile Meteogram Temp Stats Airport Information Weather charts Add Link Nearby VenuesMetar ALERT Operation Metar Decoded Social comments